Time;durP1;ratioP1;P1;durP2;ratioP2;P2;SDS_P1;SDS_P2;PMS_P1;PMS_P2;Temp;Humidity;BMP_temperature;BMP_pressure;BME280_temperature;BME280_humidity;BME280_pressure;Samples;Min_cycle;Max_cycle;Signal;HPM_P1;HPM_P2
2021/12/19 00:04:54;;;;;;;42.13;24.80;;;;;;;9.79;61.32;102392.69;10420043;28;20304;-83
2021/12/19 00:09:55;;;;;;;41.93;24.80;;;;;;;9.80;61.29;102389.63;10421951;28;20203;-80
2021/12/19 00:14:57;;;;;;;42.13;25.37;;;;;;;9.59;61.62;102388.56;10434000;28;20597;-81
2021/12/19 00:20:03;;;;;;;39.63;24.97;;;;;;;9.31;62.45;102377.63;10420205;28;20256;-81
2021/12/19 00:25:26;;;;;;;40.20;25.37;;;;;;;9.44;62.21;102380.00;10437065;28;20226;-80
2021/12/19 00:30:28;;;;;;;43.37;24.73;;;;;;;9.31;63.17;102374.81;10418060;28;20602;-80
2021/12/19 00:35:30;;;;;;;37.57;23.93;;;;;;;9.93;60.58;102365.88;10430821;28;20212;-80
2021/12/19 00:40:33;;;;;;;34.97;21.60;;;;;;;9.37;62.53;102362.50;10405800;28;20341;-81
2021/12/19 00:45:38;;;;;;;36.00;22.60;;;;;;;9.67;61.91;102365.66;10408945;28;20208;-80
2021/12/19 00:50:40;;;;;;;33.73;21.23;;;;;;;9.71;61.46;102357.53;10423446;28;20204;-81
2021/12/19 00:55:42;;;;;;;32.07;20.30;;;;;;;9.99;60.25;102353.56;10437647;28;20258;-80
2021/12/19 01:00:45;;;;;;;28.77;19.93;;;;;;;9.09;63.14;102345.94;10415737;28;20233;-79
2021/12/19 01:05:48;;;;;;;22.77;15.97;;;;;;;8.42;65.42;102357.41;10425978;28;20534;-82
2021/12/19 01:10:52;;;;;;;21.73;15.30;;;;;;;9.03;63.72;102339.44;10430346;28;20285;-83
2021/12/19 01:15:56;;;;;;;19.20;12.90;;;;;;;8.97;63.55;102340.47;10386549;28;20508;-81
2021/12/19 01:20:59;;;;;;;19.70;13.10;;;;;;;9.84;59.75;102334.63;10409452;28;20270;-81
2021/12/19 01:26:01;;;;;;;18.57;11.73;;;;;;;9.51;60.93;102344.13;10430072;28;20666;-80
2021/12/19 01:31:04;;;;;;;20.17;12.50;;;;;;;9.06;62.16;102338.06;10437505;28;20680;-81
2021/12/19 01:36:06;;;;;;;16.30;11.10;;;;;;;9.40;61.49;102335.88;10419965;28;20215;-82
2021/12/19 01:41:09;;;;;;;15.23;9.23;;;;;;;8.69;64.02;102335.91;10417829;28;20235;-82
2021/12/19 01:46:12;;;;;;;13.53;8.90;;;;;;;8.70;66.13;102346.03;10427486;28;20547;-82
2021/12/19 01:51:15;;;;;;;12.67;8.57;;;;;;;9.73;61.22;102333.69;10452090;28;20200;-81
2021/12/19 01:56:17;;;;;;;10.43;7.77;;;;;;;7.83;68.38;102329.03;10432697;28;20262;-82
2021/12/19 02:01:19;;;;;;;10.47;7.53;;;;;;;9.55;61.93;102331.31;10448755;28;20255;-81
2021/12/19 02:06:21;;;;;;;14.60;7.97;;;;;;;8.94;63.96;102319.41;10418181;28;20215;-81
2021/12/19 02:11:24;;;;;;;13.70;8.40;;;;;;;9.35;62.93;102317.88;10438989;28;20258;-80
2021/12/19 02:16:26;;;;;;;15.63;9.30;;;;;;;8.13;66.52;102321.13;10402948;28;20216;-81
2021/12/19 02:21:28;;;;;;;14.87;10.27;;;;;;;8.97;64.67;102304.03;10409500;28;20565;-82
2021/12/19 02:26:30;;;;;;;18.13;10.43;;;;;;;8.77;65.56;102301.84;10415933;28;21152;-82
2021/12/19 02:31:33;;;;;;;16.83;10.40;;;;;;;9.06;64.17;102299.63;10412056;28;20253;-81
2021/12/19 02:52:38;;;;;;;16.27;10.67;;;;;;;8.84;64.34;102279.22;10442988;28;20188;-83
2021/12/19 02:57:40;;;;;;;15.13;9.70;;;;;;;8.54;65.53;102280.53;10426302;28;20533;-82
2021/12/19 03:02:43;;;;;;;15.70;9.67;;;;;;;7.27;69.54;102280.53;10405007;28;20259;-83
2021/12/19 03:07:46;;;;;;;15.03;9.80;;;;;;;8.11;67.91;102275.75;10452637;28;20200;-81
2021/12/19 03:18:09;;;;;;;9.47;5.97;;;;;;;7.51;68.42;102276.47;10449807;28;20249;-84
2021/12/19 03:23:14;;;;;;;5.37;3.60;;;;;;;7.35;67.82;102268.94;10418675;28;20227;-82
2021/12/19 03:28:16;;;;;;;4.63;3.20;;;;;;;8.13;63.44;102267.94;10420556;28;20208;-82
2021/12/19 03:33:20;;;;;;;4.17;2.80;;;;;;;7.45;64.56;102257.94;10438861;28;20613;-80
2021/12/19 03:38:23;;;;;;;3.57;2.77;;;;;;;7.25;65.31;102254.78;10422252;28;20220;-81
2021/12/19 03:43:25;;;;;;;5.60;3.30;;;;;;;8.34;61.68;102241.03;10403581;28;20211;-80
2021/12/19 03:48:28;;;;;;;4.00;2.73;;;;;;;8.81;59.90;102241.34;10419485;28;20216;-79
2021/12/19 03:53:30;;;;;;;4.60;2.63;;;;;;;9.17;57.90;102230.50;10404323;28;20247;-79
2021/12/19 03:58:32;;;;;;;5.63;3.30;;;;;;;8.72;59.94;102226.13;10447592;28;20312;-79
2021/12/19 04:03:35;;;;;;;4.47;3.03;;;;;;;8.99;58.62;102226.97;10413601;28;20303;-80
2021/12/19 04:08:37;;;;;;;5.53;3.07;;;;;;;8.05;61.58;102220.78;10419480;28;20235;-80
2021/12/19 04:13:40;;;;;;;4.17;2.87;;;;;;;9.00;59.25;102206.22;10471898;28;20628;-79
2021/12/19 04:18:42;;;;;;;4.07;2.83;;;;;;;8.40;61.36;102211.19;10436955;28;20255;-80
2021/12/19 04:23:44;;;;;;;4.00;3.07;;;;;;;8.89;59.30;102209.19;10441573;28;20293;-79
2021/12/19 04:28:46;;;;;;;3.97;2.57;;;;;;;8.67;60.38;102202.81;10460371;28;20266;-80
2021/12/19 04:33:49;;;;;;;5.27;2.73;;;;;;;8.86;59.74;102195.72;10459191;28;20226;-80
2021/12/19 05:00:08;;;;;;;7.00;3.17;;;;;;;8.96;59.01;102173.38;10452747;28;20219;-81
2021/12/19 05:16:06;;;;;;;7.27;4.10;;;;;;;8.93;60.34;102171.13;10428650;28;20236;-81
2021/12/19 05:21:17;;;;;;;8.13;4.63;;;;;;;8.63;60.77;102171.66;10426030;28;20638;-82
2021/12/19 05:26:20;;;;;;;9.03;5.37;;;;;;;8.73;60.62;102162.50;10420353;28;20231;-81
2021/12/19 05:31:22;;;;;;;9.07;5.00;;;;;;;8.55;62.25;102169.31;10441238;28;20223;-80
2021/12/19 05:46:44;;;;;;;12.00;6.67;;;;;;;8.91;60.84;102159.34;10415379;28;20923;-79
2021/12/19 05:51:46;;;;;;;14.53;7.03;;;;;;;7.83;65.11;102161.16;10427557;28;20257;-78
2021/12/19 05:56:49;;;;;;;11.97;6.53;;;;;;;8.58;62.36;102157.59;10412079;28;20246;-78
2021/12/19 06:01:52;;;;;;;10.27;6.00;;;;;;;7.85;64.40;102161.75;10452148;28;20704;-78
2021/12/19 06:06:54;;;;;;;18.17;12.23;;;;;;;8.38;62.75;102162.97;10454168;28;20199;-79
2021/12/19 06:11:56;;;;;;;9.03;5.73;;;;;;;7.84;64.35;102162.84;10430826;28;20208;-80
2021/12/19 06:17:03;;;;;;;9.03;5.60;;;;;;;8.47;62.59;102145.44;10449482;28;20512;-79
2021/12/19 06:22:06;;;;;;;9.90;5.67;;;;;;;8.02;64.11;102142.91;10416382;28;20257;-79
2021/12/19 06:27:08;;;;;;;7.43;4.73;;;;;;;8.57;61.69;102127.88;10413226;28;20216;-79
2021/12/19 06:32:11;;;;;;;9.73;5.20;;;;;;;8.33;63.65;102138.53;10399953;28;20254;-78
2021/12/19 06:37:13;;;;;;;8.53;5.23;;;;;;;8.96;60.67;102118.16;10417573;28;20285;-78
2021/12/19 06:42:15;;;;;;;11.33;5.87;;;;;;;8.97;60.44;102111.44;10401982;28;20251;-79
2021/12/19 06:47:18;;;;;;;8.40;5.77;;;;;;;8.67;61.32;102105.56;10399783;28;20620;-79
2021/12/19 06:52:20;;;;;;;8.50;5.70;;;;;;;8.31;62.53;102107.97;10380239;28;20235;-78
2021/12/19 06:57:22;;;;;;;8.70;4.93;;;;;;;8.61;61.05;102104.69;10422005;28;20227;-79
2021/12/19 07:02:25;;;;;;;6.00;3.70;;;;;;;8.62;61.91;102109.19;10420701;28;20655;-79
2021/12/19 07:07:29;;;;;;;5.17;3.50;;;;;;;8.27;60.38;102104.03;10401121;28;20232;-79
2021/12/19 07:12:31;;;;;;;5.53;3.00;;;;;;;8.35;61.05;102107.47;10383619;28;20575;-79
2021/12/19 07:17:33;;;;;;;4.17;2.57;;;;;;;9.21;59.38;102095.06;10436068;28;20239;-79
2021/12/19 07:22:36;;;;;;;5.10;3.03;;;;;;;8.75;60.63;102102.28;10420963;28;20252;-81
2021/12/19 07:27:38;;;;;;;5.07;3.70;;;;;;;9.14;58.98;102090.81;10418138;28;20243;-79
2021/12/19 07:32:40;;;;;;;5.30;3.80;;;;;;;9.29;58.38;102099.34;10420185;28;20246;-79
2021/12/19 07:37:58;;;;;;;3.87;3.40;;;;;;;8.97;59.70;102103.03;10418958;28;20687;-79
2021/12/19 07:43:02;;;;;;;5.63;4.40;;;;;;;8.82;60.00;102102.06;10409347;28;20318;-79
2021/12/19 07:48:05;;;;;;;8.83;5.07;;;;;;;9.11;59.17;102100.63;10390995;28;20239;-79
2021/12/19 07:53:08;;;;;;;6.87;4.60;;;;;;;8.90;60.20;102094.03;10419687;28;20235;-83
2021/12/19 07:58:11;;;;;;;6.57;4.20;;;;;;;9.04;59.79;102080.38;10421916;28;20602;-79
2021/12/19 08:03:13;;;;;;;5.87;4.17;;;;;;;9.15;59.95;102078.50;10392184;28;20263;-78
2021/12/19 08:08:21;;;;;;;4.57;3.83;;;;;;;9.30;59.11;102071.03;10418164;28;20290;-80
2021/12/19 08:13:23;;;;;;;6.97;4.17;;;;;;;8.92;60.76;102071.31;10422443;28;21380;-81
2021/12/19 08:18:25;;;;;;;4.20;3.70;;;;;;;9.37;59.29;102068.81;10426781;28;20694;-78
2021/12/19 08:23:27;;;;;;;6.00;4.67;;;;;;;9.25;59.84;102062.56;10430983;28;20317;-78
2021/12/19 08:28:30;;;;;;;7.43;4.27;;;;;;;9.27;60.51;102060.34;10449752;28;20600;-78
2021/12/19 08:33:32;;;;;;;5.43;4.60;;;;;;;9.26;60.27;102060.63;10431103;28;20601;-80
2021/12/19 08:38:34;;;;;;;5.97;4.40;;;;;;;9.13;60.60;102063.91;10449179;28;20288;-80
2021/12/19 08:43:37;;;;;;;6.63;4.97;;;;;;;9.27;60.87;102053.88;10425822;28;20294;-79
2021/12/19 08:48:39;;;;;;;7.23;5.53;;;;;;;9.37;59.99;102042.72;10426773;28;20236;-79
2021/12/19 08:53:42;;;;;;;4.10;3.70;;;;;;;8.37;63.79;102049.25;10449991;28;20227;-82
2021/12/19 08:58:44;;;;;;;5.07;3.77;;;;;;;8.45;63.97;102041.22;10443223;28;20235;-79
2021/12/19 09:03:46;;;;;;;5.23;3.43;;;;;;;8.71;63.58;102045.09;10424548;28;20541;-79
2021/12/19 09:08:49;;;;;;;4.33;3.30;;;;;;;9.11;62.86;102038.09;10439127;28;20290;-80
2021/12/19 09:13:52;;;;;;;3.80;3.10;;;;;;;8.63;63.14;102046.44;10445580;28;20231;-79
2021/12/19 09:18:54;;;;;;;3.57;3.00;;;;;;;9.46;60.40;102024.25;10424123;28;20243;-79
2021/12/19 09:23:58;;;;;;;5.30;3.83;;;;;;;8.95;62.03;102037.97;10447730;28;20227;-80
2021/12/19 09:29:01;;;;;;;3.57;3.00;;;;;;;9.11;61.50;102032.47;10441218;28;20250;-79
2021/12/19 09:34:06;;;;;;;5.10;4.00;;;;;;;8.78;62.25;102033.66;10427152;28;20224;-79
2021/12/19 09:39:08;;;;;;;4.70;3.40;;;;;;;8.80;62.92;102026.66;10432506;28;20239;-80
2021/12/19 09:44:14;;;;;;;2.27;1.90;;;;;;;8.28;65.33;102032.09;10424660;28;20255;-81
2021/12/19 09:49:18;;;;;;;1.90;1.23;;;;;;;8.60;63.34;102020.91;10411475;28;20223;-79
2021/12/19 09:54:21;;;;;;;1.70;1.10;;;;;;;8.44;63.90;102025.53;10401498;28;20277;-78
2021/12/19 09:59:23;;;;;;;1.43;1.33;;;;;;;8.58;63.90;102011.91;10438339;28;20278;-78
2021/12/19 10:04:36;;;;;;;2.47;1.80;;;;;;;8.24;64.58;102011.31;10443708;28;20285;-78
2021/12/19 10:09:59;;;;;;;2.47;2.00;;;;;;;8.96;62.08;102008.81;10420581;28;20239;-79
2021/12/19 10:15:06;;;;;;;1.70;1.03;;;;;;;7.75;67.28;102008.56;10382942;28;20612;-78
2021/12/19 10:20:10;;;;;;;1.63;0.90;;;;;;;7.90;65.56;102008.72;10423697;28;20640;-78
2021/12/19 10:25:23;;;;;;;0.90;0.63;;;;;;;8.06;66.44;102003.28;10423557;28;20235;-79
2021/12/19 10:30:32;;;;;;;0.50;0.40;;;;;;;7.31;66.31;102004.09;10440416;28;20220;-79
2021/12/19 10:35:43;;;;;;;0.47;0.47;;;;;;;7.86;62.97;101988.00;10447289;28;20235;-79
2021/12/19 10:41:22;;;;;;;1.47;1.00;;;;;;;8.37;62.54;101977.28;10433176;28;20258;-82
2021/12/19 10:46:30;;;;;;;1.20;1.10;;;;;;;8.40;61.19;101987.13;10425813;28;20211;-82
2021/12/19 10:51:38;;;;;;;1.13;0.87;;;;;;;9.49;59.17;101966.75;10408739;28;20278;-80
2021/12/19 10:56:41;;;;;;;0.43;0.43;;;;;;;8.87;60.09;101956.38;10446542;28;20209;-80
2021/12/19 11:01:51;;;;;;;0.73;0.47;;;;;;;9.56;57.68;101945.78;10465161;28;20255;-83
2021/12/19 11:06:54;;;;;;;0.63;0.40;;;;;;;9.08;59.21;101943.28;10401962;28;20254;-79
2021/12/19 11:12:00;;;;;;;4.07;0.77;;;;;;;8.41;62.53;101939.22;10410709;28;20239;-83
2021/12/19 11:17:09;;;;;;;2.07;0.90;;;;;;;7.89;62.45;101942.66;10424810;28;20537;-83
2021/12/19 11:22:12;;;;;;;1.10;0.60;;;;;;;8.70;60.85;101925.72;10428145;28;20652;-80
2021/12/19 11:27:15;;;;;;;2.63;1.20;;;;;;;8.56;62.14;101919.72;10406945;28;20220;-82
2021/12/19 11:32:19;;;;;;;2.30;1.57;;;;;;;8.45;62.47;101914.34;10412981;28;20685;-80
2021/12/19 11:37:28;;;;;;;2.93;1.80;;;;;;;9.16;59.75;101906.34;10390360;28;20235;-81
2021/12/19 11:42:39;;;;;;;2.30;2.10;;;;;;;8.49;61.49;101915.50;10400944;28;20301;-80
2021/12/19 11:47:51;;;;;;;3.10;2.20;;;;;;;9.58;58.17;101904.22;10403037;28;20305;-80
2021/12/19 11:52:56;;;;;;;2.57;2.37;;;;;;;9.14;59.75;101891.75;10427618;28;20220;-80
2021/12/19 11:58:07;;;;;;;1.77;1.50;;;;;;;8.72;61.40;101884.25;10455931;28;20602;-82
2021/12/19 12:03:12;;;;;;;1.07;0.83;;;;;;;7.96;61.52;101880.91;10435231;28;20765;-83
2021/12/19 12:08:19;;;;;;;0.70;0.70;;;;;;;8.88;59.95;101877.63;10454636;28;20239;-82
2021/12/19 12:13:33;;;;;;;0.67;0.60;;;;;;;8.65;61.43;101866.84;10449983;28;20289;-81
2021/12/19 12:18:38;;;;;;;0.50;0.50;;;;;;;9.44;58.82;101857.34;10453822;28;20235;-81
2021/12/19 12:23:59;;;;;;;0.73;0.50;;;;;;;8.85;59.97;101846.47;10431579;28;20312;-82
2021/12/19 12:29:02;;;;;;;2.47;1.33;;;;;;;9.62;58.91;101831.56;10423915;28;20227;-82
2021/12/19 12:34:10;;;;;;;0.70;0.40;;;;;;;9.75;57.75;101819.78;10436649;28;20224;-82
2021/12/19 12:39:17;;;;;;;3.27;0.70;;;;;;;8.81;61.37;101818.16;10415947;28;20545;-82
2021/12/19 12:44:21;;;;;;;0.70;0.70;;;;;;;8.76;61.16;101812.53;10421592;28;20255;-81
2021/12/19 12:49:26;;;;;;;0.63;0.63;;;;;;;8.36;61.97;101817.91;10448759;28;20235;-82
2021/12/19 12:54:37;;;;;;;2.07;0.70;;;;;;;9.50;58.57;101806.56;10425786;28;20246;-82
2021/12/19 12:59:41;;;;;;;1.47;0.90;;;;;;;8.71;60.75;101804.09;10419083;28;20239;-83
2021/12/19 13:04:51;;;;;;;2.07;1.57;;;;;;;8.52;61.98;101794.50;10407435;28;20252;-81
2021/12/19 13:09:56;;;;;;;2.43;1.60;;;;;;;9.42;58.99;101807.13;10426273;28;20232;-82
2021/12/19 13:15:04;;;;;;;2.47;1.77;;;;;;;8.13;63.85;101799.59;10430472;28;20663;-82
2021/12/19 13:20:17;;;;;;;1.67;1.50;;;;;;;8.76;61.76;101801.34;10403431;28;20655;-83
2021/12/19 13:25:22;;;;;;;1.97;1.73;;;;;;;8.65;61.56;101796.81;10425203;28;20504;-83
2021/12/19 13:30:31;;;;;;;2.33;1.20;;;;;;;8.88;61.02;101792.69;10428748;28;20281;-84
2021/12/19 13:35:43;;;;;;;2.33;1.67;;;;;;;7.63;63.94;101789.69;10417839;28;20608;-83
2021/12/19 13:40:51;;;;;;;3.27;1.80;;;;;;;8.84;60.21;101778.38;10455483;28;20228;-82
2021/12/19 13:45:56;;;;;;;1.53;1.00;;;;;;;7.63;64.70;101783.25;10412608;28;20235;-82
2021/12/19 13:51:11;;;;;;;3.27;1.27;;;;;;;8.49;61.17;101772.66;10403325;28;20228;-82
2021/12/19 13:56:18;;;;;;;2.40;0.83;;;;;;;7.67;63.98;101781.59;10431305;28;20269;-82
2021/12/19 14:01:36;;;;;;;1.77;1.17;;;;;;;7.32;65.47;101779.34;10419439;28;20255;-84
2021/12/19 14:06:41;;;;;;;2.30;1.07;;;;;;;8.84;60.74;101764.38;10413840;28;20235;-83
2021/12/19 14:11:49;;;;;;;2.13;1.13;;;;;;;7.85;64.42;101765.25;10399011;28;20232;-83
2021/12/19 14:17:12;;;;;;;2.73;1.13;;;;;;;9.26;59.06;101760.53;10430966;28;20660;-81
2021/12/19 14:22:16;;;;;;;3.53;1.20;;;;;;;8.61;61.61;101753.66;10393438;28;20305;-83
2021/12/19 14:27:18;;;;;;;1.77;1.60;;;;;;;9.23;59.41;101744.25;10392689;28;20248;-83
2021/12/19 14:32:33;;;;;;;2.57;2.13;;;;;;;8.44;62.74;101753.84;10461044;28;20231;-83
2021/12/19 14:37:41;;;;;;;4.73;2.90;;;;;;;9.34;60.21;101745.94;10432147;28;20261;-82
2021/12/19 14:43:04;;;;;;;3.10;2.27;;;;;;;9.47;59.04;101745.38;10400700;28;20251;-84
2021/12/19 14:48:10;;;;;;;3.67;2.57;;;;;;;9.52;60.10;101741.75;10398316;28;20236;-82
2021/12/19 14:53:30;;;;;;;3.20;2.47;;;;;;;8.86;61.78;101733.25;10402283;28;20228;-81
2021/12/19 14:58:35;;;;;;;4.37;3.10;;;;;;;9.17;61.49;101723.81;10315708;28;20327;-84
2021/12/19 15:03:51;;;;;;;6.50;2.67;;;;;;;9.47;60.46;101722.94;10329122;28;20312;-84
2021/12/19 15:08:55;;;;;;;2.73;2.40;;;;;;;9.62;60.13;101720.16;10301313;28;20233;-82
2021/12/19 15:13:57;;;;;;;6.23;2.83;;;;;;;9.00;61.72;101712.84;10311782;28;20212;-84
2021/12/19 15:19:03;;;;;;;3.60;2.63;;;;;;;9.02;62.21;101712.56;10320724;28;20253;-82
2021/12/19 15:24:06;;;;;;;4.10;2.10;;;;;;;8.75;62.61;101698.78;10299747;28;20265;-85
2021/12/19 15:29:09;;;;;;;4.53;2.30;;;;;;;8.94;62.29;101691.50;10285892;28;20234;-85
2021/12/19 15:34:11;;;;;;;3.57;2.13;;;;;;;9.24;61.36;101687.91;10298252;28;20333;-83
2021/12/19 15:39:13;;;;;;;3.50;1.77;;;;;;;9.08;61.53;101676.94;10325000;28;20284;-82
2021/12/19 15:44:17;;;;;;;3.07;1.83;;;;;;;9.25;61.45;101677.53;10298608;28;20308;-83
2021/12/19 15:49:20;;;;;;;2.67;2.10;;;;;;;9.30;61.34;101680.34;10306134;28;20288;-81
2021/12/19 15:54:29;;;;;;;2.90;2.70;;;;;;;9.17;61.79;101672.50;10303686;28;20229;-83
2021/12/19 15:59:34;;;;;;;5.67;3.73;;;;;;;9.63;60.41;101665.75;10318321;28;20233;-83
2021/12/19 16:04:36;;;;;;;5.17;3.53;;;;;;;9.54;60.41;101666.56;10307881;28;20304;-81
2021/12/19 16:09:39;;;;;;;6.33;4.77;;;;;;;9.14;61.26;101661.81;10326132;28;20562;-83
2021/12/19 16:14:43;;;;;;;7.23;4.73;;;;;;;9.30;61.00;101660.72;10348420;28;20658;-82
2021/12/19 16:19:45;;;;;;;7.97;5.83;;;;;;;9.66;60.37;101659.56;10321401;28;20221;-82
2021/12/19 16:24:48;;;;;;;6.37;5.23;;;;;;;9.20;62.16;101660.69;10325072;28;20327;-80
2021/12/19 16:29:51;;;;;;;9.07;6.53;;;;;;;9.32;61.92;101644.41;10302377;28;20234;-82
2021/12/19 16:34:53;;;;;;;8.23;5.57;;;;;;;9.34;62.04;101636.56;10317908;28;20205;-81
2021/12/19 16:39:58;;;;;;;8.00;5.53;;;;;;;9.27;62.02;101638.84;10325627;28;20252;-82
2021/12/19 16:45:00;;;;;;;8.37;4.93;;;;;;;9.24;62.20;101636.59;10321738;28;20552;-80
2021/12/19 16:50:06;;;;;;;7.73;5.10;;;;;;;8.75;63.43;101642.75;10332340;28;20264;-81
2021/12/19 16:55:08;;;;;;;5.70;4.73;;;;;;;8.81;63.25;101643.56;10316911;28;20292;-82
2021/12/19 17:00:14;;;;;;;6.87;4.80;;;;;;;9.05;62.59;101635.47;10315669;28;20238;-81
2021/12/19 17:05:16;;;;;;;8.27;5.33;;;;;;;9.63;60.19;101643.28;10325346;28;20253;-80
2021/12/19 17:10:18;;;;;;;9.03;4.50;;;;;;;9.13;61.87;101630.16;10322831;28;20319;-81
2021/12/19 17:15:22;;;;;;;5.97;4.37;;;;;;;9.76;60.25;101629.78;10330597;28;21051;-78
2021/12/19 17:20:26;;;;;;;9.43;4.90;;;;;;;9.83;59.43;101631.19;10293927;28;20238;-80
2021/12/19 17:25:28;;;;;;;6.47;4.23;;;;;;;9.73;59.31;101631.19;10314903;28;20646;-79
2021/12/19 17:30:32;;;;;;;6.33;4.43;;;;;;;9.42;61.20;101630.41;10338658;28;20543;-82
2021/12/19 17:35:35;;;;;;;7.37;5.43;;;;;;;9.69;59.64;101624.50;10326018;28;20233;-82
2021/12/19 17:45:40;;;;;;;10.40;6.37;;;;;;;9.06;62.15;101611.94;10312583;28;20241;-80
2021/12/19 17:50:42;;;;;;;8.80;6.37;;;;;;;9.82;59.64;101612.66;10323624;28;20320;-81
2021/12/19 17:55:45;;;;;;;7.50;5.60;;;;;;;9.87;59.72;101620.19;10312713;28;20311;-82
2021/12/19 18:00:47;;;;;;;7.20;5.90;;;;;;;9.36;61.43;101611.88;10299356;28;20260;-81
2021/12/19 18:05:53;;;;;;;8.57;5.50;;;;;;;9.81;60.00;101621.38;10310598;28;20644;-82
2021/12/19 18:10:59;;;;;;;10.33;6.03;;;;;;;9.25;61.82;101618.63;10319375;28;20230;-82
2021/12/19 18:16:03;;;;;;;8.47;5.60;;;;;;;8.94;63.77;101618.63;10310698;28;20284;-81
2021/12/19 18:21:05;;;;;;;8.07;4.93;;;;;;;9.00;63.42;101623.13;10295685;28;20265;-82
2021/12/19 18:26:09;;;;;;;8.83;4.70;;;;;;;9.10;63.68;101610.22;10314001;28;20262;-81
2021/12/19 18:31:30;;;;;;;8.70;4.93;;;;;;;8.98;62.47;101610.53;10306573;28;20230;-82
2021/12/19 18:36:36;;;;;;;9.60;4.87;;;;;;;8.64;64.10;101613.88;10307196;28;20242;-82
2021/12/19 18:41:59;;;;;;;8.00;5.73;;;;;;;9.02;63.16;101615.28;10292607;28;20674;-81
2021/12/19 18:57:42;;;;;;;12.33;6.23;;;;;;;9.77;59.47;101606.22;10307564;28;20261;-80
2021/12/19 19:02:55;;;;;;;7.73;5.30;;;;;;;9.90;59.14;101614.03;10311400;28;20307;-81
2021/12/19 19:08:00;;;;;;;8.50;5.63;;;;;;;9.20;61.63;101605.44;10294409;28;20567;-81
2021/12/19 19:13:03;;;;;;;9.93;5.50;;;;;;;9.76;59.89;101610.13;10320329;28;20319;-81
2021/12/19 19:18:07;;;;;;;7.10;4.70;;;;;;;9.22;62.47;101607.97;10319317;28;20299;-81
2021/12/19 19:23:12;;;;;;;9.40;5.27;;;;;;;9.33;61.80;101609.63;10311248;28;20284;-81
2021/12/19 19:34:33;;;;;;;10.10;6.00;;;;;;;9.02;62.65;101609.69;10315187;28;20233;-81
2021/12/19 19:50:31;;;;;;;7.83;4.77;;;;;;;8.29;64.15;101600.59;10307308;28;20296;-82
2021/12/19 19:55:37;;;;;;;9.40;4.93;;;;;;;8.76;63.54;101622.00;10284453;28;20275;-82
2021/12/19 20:00:39;;;;;;;9.90;5.63;;;;;;;8.11;64.63;101615.09;10308812;28;20225;-82
2021/12/19 20:05:41;;;;;;;11.47;5.93;;;;;;;8.68;63.38;101604.88;10337551;28;20958;-80
2021/12/19 20:10:44;;;;;;;9.43;6.40;;;;;;;9.36;61.79;101592.25;10301546;28;20811;-80
2021/12/19 20:15:47;;;;;;;7.40;4.60;;;;;;;8.20;63.75;101607.84;10317010;28;20229;-82
2021/12/19 20:20:50;;;;;;;7.63;4.87;;;;;;;8.83;61.91;101600.13;10322716;28;20250;-82
2021/12/19 20:25:53;;;;;;;7.47;5.50;;;;;;;9.12;61.32;101613.59;10315408;28;20310;-82
2021/12/19 20:30:57;;;;;;;9.80;5.63;;;;;;;9.87;59.00;101615.44;10288412;28;20284;-82
2021/12/19 20:36:00;;;;;;;11.23;5.27;;;;;;;9.45;58.66;101604.56;10309003;28;20229;-82
2021/12/19 20:41:02;;;;;;;9.27;4.03;;;;;;;8.83;61.02;101611.34;10298640;28;20292;-82
2021/12/19 20:46:05;;;;;;;8.97;4.70;;;;;;;8.74;61.55;101604.63;10304186;28;20694;-82
2021/12/19 20:51:08;;;;;;;13.07;5.90;;;;;;;9.29;60.54;101608.53;10324442;28;20285;-82
2021/12/19 20:56:10;;;;;;;9.53;4.93;;;;;;;9.85;57.96;101614.03;10318293;28;20272;-83
2021/12/19 21:01:14;;;;;;;9.17;5.37;;;;;;;10.12;57.52;101603.25;10305502;28;20280;-82
2021/12/19 21:06:17;;;;;;;12.10;5.60;;;;;;;10.19;57.94;101602.94;10305884;28;20253;-81
2021/12/19 21:11:19;;;;;;;9.53;4.93;;;;;;;9.78;58.61;101596.66;10312556;28;20673;-81
2021/12/19 21:21:43;;;;;;;7.37;4.63;;;;;;;9.51;59.73;101597.84;10316114;28;20591;-81
2021/12/19 21:26:45;;;;;;;6.93;3.50;;;;;;;8.91;60.50;101585.59;10317308;28;20280;-81
2021/12/19 21:31:47;;;;;;;6.70;3.60;;;;;;;9.24;60.00;101594.50;10333724;28;20673;-81
2021/12/19 21:42:10;;;;;;;7.40;3.60;;;;;;;9.53;59.39;101583.53;10322942;28;20218;-82
2021/12/19 21:47:13;;;;;;;8.13;3.90;;;;;;;9.94;57.60;101581.44;10337944;28;20328;-82
2021/12/19 21:52:15;;;;;;;5.27;3.13;;;;;;;8.74;59.52;101589.78;10325979;28;20252;-82
2021/12/19 21:57:18;;;;;;;6.03;3.43;;;;;;;9.58;58.64;101583.56;10308322;28;20226;-82
2021/12/19 22:02:20;;;;;;;6.97;3.37;;;;;;;8.64;61.18;101590.63;10325969;28;20254;-81
2021/12/19 22:07:22;;;;;;;7.30;3.57;;;;;;;8.57;61.86;101584.44;10310184;28;20253;-81
2021/12/19 22:17:42;;;;;;;5.97;3.93;;;;;;;9.10;60.08;101594.25;10305456;28;20221;-82
2021/12/19 22:22:44;;;;;;;8.33;4.13;;;;;;;8.99;60.95;101578.56;10315368;28;20253;-81
2021/12/19 22:27:47;;;;;;;10.30;5.10;;;;;;;8.91;60.58;101574.38;10317472;28;20300;-81
2021/12/19 22:32:49;;;;;;;6.47;4.00;;;;;;;9.32;59.67;101591.97;10302264;28;20241;-81
2021/12/19 22:37:52;;;;;;;6.83;4.30;;;;;;;9.15;60.16;101568.19;10351434;28;20620;-80
2021/12/19 22:42:54;;;;;;;8.50;4.27;;;;;;;8.48;62.04;101552.50;10294945;28;20206;-80
2021/12/19 22:47:56;;;;;;;5.43;3.83;;;;;;;9.40;59.76;101570.09;10318346;28;20287;-81
2021/12/19 22:52:59;;;;;;;11.03;3.83;;;;;;;9.29;58.87;101561.72;10299885;28;20262;-81
2021/12/19 22:58:03;;;;;;;7.13;3.87;;;;;;;8.74;61.45;101559.78;10316890;28;20233;-80
2021/12/19 23:03:08;;;;;;;13.10;4.77;;;;;;;9.38;59.56;101556.34;10305000;28;20265;-80
2021/12/19 23:08:11;;;;;;;12.63;4.13;;;;;;;8.30;62.63;101557.47;10319621;28;20233;-81
2021/12/19 23:13:18;;;;;;;10.23;3.70;;;;;;;9.31;60.09;101547.41;10318971;28;20233;-79
2021/12/19 23:18:21;;;;;;;7.87;3.80;;;;;;;9.41;58.28;101547.38;10309844;28;20607;-82
2021/12/19 23:23:23;;;;;;;6.70;3.43;;;;;;;9.25;59.59;101545.72;10320372;28;20257;-80
2021/12/19 23:28:25;;;;;;;6.43;3.27;;;;;;;9.27;59.46;101549.09;10303055;28;20291;-80
2021/12/19 23:39:01;;;;;;;7.67;3.27;;;;;;;9.79;57.89;101547.84;10321351;28;20260;-82
2021/12/19 23:49:25;;;;;;;14.10;2.93;;;;;;;9.04;60.10;101538.50;10328795;28;20700;-81
2021/12/19 23:54:27;;;;;;;6.50;2.83;;;;;;;8.74;59.85;101540.19;10328313;28;20283;-79
2021/12/19 23:59:30;;;;;;;5.97;2.73;;;;;;;9.04;59.40;101546.91;10328051;28;20601;-81
